West Bend, WI (53090)

10:00 PM CDT on August 29, 2016 (GMT -0500)
APRSWXNET | | Change Station

Elev 959 ft 43.44 °N, 88.20 °W | Updated 24 minutes ago

Clear
Clear
73 °F
Feels Like 73 °F
N
0
Wind Variable Wind from SSE
Gusts 0.0 mph

Today
High -- | Low -- °F
--% Chance of Precip.
Yesterday
High -- | Low -- °F
Precip. -- in
Pressure 30.18 in
Visibility 10.0 miles
Clouds Clear
Heat Index 73 °F
Dew Point 67 °F
Humidity 82%
Rainfall in
Snow Depth Not available.
6:13 AM 7:32 PM
Waning Crescent, 5% visible
METAR KETB 300230Z AUTO 00000KT 10SM CLR 20/18 A3018 RMK AO2
Pressure 30.18 in
Visibility 10.0 miles
Clouds Clear
Heat Index 73 °F
Dew Point 67 °F
Humidity 82%
Rainfall in
Snow Depth Not available.
6:13 AM 7:32 PM
Waning Crescent, 5% visible
METAR KETB 300230Z AUTO 00000KT 10SM CLR 20/18 A3018 RMK AO2

10-Day Weather Forecast

Almanac

Astronomy

Aug. 29, 2016 Rise Set
Actual Time
Civil Twilight
Nautical Twilight
Astronomical Twilight
Moon
Length of Visible Light
Length of Day
Tomorrow will be .
, % of the Moon is Illuminated

Today's Extremes

State Highs State Lows

Community

WunderPhotos

Upload Photos

1,935,747 photos uploaded!

WunderBlog® & News

Nearby

Air Quality

  Air Quality AQ Index Pollutant
Not available.

Snow Depth

Station Depth Elevation

Earthquake Activity

City Distance Mag. Time & Date
Minimum magnitude displayed is 2.5.

Coastal Water Temperatures

Place Temperature

Stations

Nearby Weather Stations

Station Location Temp. Windchill Dew Point Humidity Wind Precip. Elev Updated Type
                   

Watches & Warnings

There are currently no watches in effect.